Aérodrome :
LOGIN :

S'inscrire | Disclaimer

   EN    FR    IT 

 










Légende :    VFR   VFR Marginal   IFR   IFR Intensif   IFR Très Intensif
Visi : 
Plafond : 
>= 8 km
>= 3000ft
5 à 8 km
1000 à 3000 ft
1500m à 5 km
500 à 1000 ft
800 à 1500m
200 à 500 ft
< 800m
< 200 ft
Symboles :   Orages  Brouillard  Fortes neiges  Fortes précipitations  Vent > 20 kt
SIGMETs :   Divers  Orages  Givrage  Turbulence  Onde Orograph.  Cendres Volcan.






- Altitude de l'aérodrome : 1325 ft
- Code IATA : EBU


LFMH - St-Etienne Boutheon

DERNIER METAR :
  • 210130Z AUTO 17006KT 9999 BKN058 OVC200 12/10 Q1014

METARs EXPIRÉS :
  • 210100Z AUTO 17005KT 9999 BKN054 OVC064 12/10 Q1014
  • 210030Z AUTO 14008KT 9999 -RA OVC052/// ///TCU 13/10 Q1013
  • 210000Z AUTO 14008KT 9999 -RA OVC050/// ///TCU 12/11 Q1013
  • 202330Z AUTO 15007KT 9999 RA BKN049/// OVC066/// ///TCU 13/11 Q1013
  • 202300Z AUTO 21006KT 180V240 9999 -RA BKN047/// OVC060/// ///TCU 14/11 Q1012

TAF TAF LFMH
Valide du 20 à 15h jusqu'au 21 à 15h UTC


201400Z 2015/2115 16012KT 9999 RA BKN040
TEMPO 2015/2018 18018G32KT
TEMPO 2015/2021 4000 SCT015 SCT030TCU BKN040
PROB40
TEMPO 2015/2020 3000 TSRA SCT015 BKN040CB
BECMG 2104/2106 16004KT
ATIS : +33 4 77 36 17 51



MET'MAP, la Météo Aéronautique d'un coup d'oeil ! - Copyright ORBIFLY Décembre 2007 - Disclaimer

ORBIFLY MET'MAP TEAM :

Programmation & Développement : Alexandra Zaïnal
Conception & Développement : Baudouin d'Aumeries
Co-Programmation & Développement : Marc-Olivier Méhu
Soutien technique & logistique : Manuel Goepfert

Contact : metmap@orbifly.com




SOURCES & CREDITS :

   NOAA